Riverton, Indiana
Current Conditions -  °F | °C
As of 5:55 AM on Thursday 27 Nov 2014 (Local Time) from KRSV Reporting Station
Overcast Overcast  
Wind Chill: 17°   Ceiling: 1900
Heat Index: 28°   Visibility: 10mi
Dew Point: 24°   Wind: 13mph
Humidity: 84%   Direction: 330°NNW
Pressure: 30.31"   Gusts: 18mph
Location:  39.0138°N, 87.523°W
Report Text: KRSV 271055Z AUTO 33011G16KT 10SM OVC019 M02/M05 A3031 RMK AO2 T10221046
Loading
Personal Weather Stations






























Interactive Weather Map New forecast layout! Learn more

10-Day Weather Forecast

Advertisements
Track Severe Weather on mobile